sensor_id;sensor_type;location;lat;lon;timestamp;pressure;altitude;pressure_sealevel;temperature;humidity
11085;BME280;5596;46.826;8.650;2022-09-16T00:01:18;95722.16;;;16.04;100.00
11085;BME280;5596;46.826;8.650;2022-09-16T00:03:46;95730.59;;;16.02;100.00
11085;BME280;5596;46.826;8.650;2022-09-16T00:06:18;95729.75;;;16.07;100.00
11085;BME280;5596;46.826;8.650;2022-09-16T00:08:47;95725.13;;;16.02;100.00
11085;BME280;5596;46.826;8.650;2022-09-16T00:11:14;95733.06;;;15.99;100.00
11085;BME280;5596;46.826;8.650;2022-09-16T00:13:43;95734.97;;;15.98;100.00
11085;BME280;5596;46.826;8.650;2022-09-16T00:16:17;95731.44;;;15.98;100.00
11085;BME280;5596;46.826;8.650;2022-09-16T00:18:44;95729.25;;;15.95;100.00
11085;BME280;5596;46.826;8.650;2022-09-16T00:21:12;95740.69;;;15.92;100.00
11085;BME280;5596;46.826;8.650;2022-09-16T00:23:39;95733.34;;;15.92;100.00
11085;BME280;5596;46.826;8.650;2022-09-16T00:26:06;95735.78;;;15.94;100.00
11085;BME280;5596;46.826;8.650;2022-09-16T00:28:33;95736.34;;;15.96;100.00
11085;BME280;5596;46.826;8.650;2022-09-16T00:31:01;95735.78;;;15.94;100.00
11085;BME280;5596;46.826;8.650;2022-09-16T00:33:28;95733.34;;;15.92;100.00
11085;BME280;5596;46.826;8.650;2022-09-16T00:36:04;95737.44;;;15.95;100.00
11085;BME280;5596;46.826;8.650;2022-09-16T00:38:31;95740.16;;;15.95;100.00
11085;BME280;5596;46.826;8.650;2022-09-16T00:40:58;95734.97;;;15.98;100.00
11085;BME280;5596;46.826;8.650;2022-09-16T00:43:25;95739.59;;;15.98;100.00
11085;BME280;5596;46.826;8.650;2022-09-16T00:45:55;95736.88;;;15.98;100.00
11085;BME280;5596;46.826;8.650;2022-09-16T00:48:26;95748.06;;;15.96;100.00
11085;BME280;5596;46.826;8.650;2022-09-16T00:50:59;95740.69;;;15.92;100.00
11085;BME280;5596;46.826;8.650;2022-09-16T00:53:30;95750.78;;;15.91;100.00
11085;BME280;5596;46.826;8.650;2022-09-16T00:56:03;95747.25;;;15.91;100.00
11085;BME280;5596;46.826;8.650;2022-09-16T00:58:35;95746.72;;;15.88;100.00
11085;BME280;5596;46.826;8.650;2022-09-16T01:01:06;95738.00;;;15.86;100.00
11085;BME280;5596;46.826;8.650;2022-09-16T01:03:41;95739.66;;;15.82;100.00
11085;BME280;5596;46.826;8.650;2022-09-16T01:06:10;95745.66;;;15.79;100.00
11085;BME280;5596;46.826;8.650;2022-09-16T01:08:39;95733.69;;;15.80;100.00
11085;BME280;5596;46.826;8.650;2022-09-16T01:11:07;95739.38;;;15.84;100.00
11085;BME280;5596;46.826;8.650;2022-09-16T01:13:35;95738.31;;;15.80;100.00
11085;BME280;5596;46.826;8.650;2022-09-16T01:16:05;95745.09;;;15.82;100.00
11085;BME280;5596;46.826;8.650;2022-09-16T01:18:40;95746.44;;;15.85;100.00
11085;BME280;5596;46.826;8.650;2022-09-16T01:21:21;95745.09;;;15.87;100.00
11085;BME280;5596;46.826;8.650;2022-09-16T01:24:25;95738.00;;;15.86;100.00
11085;BME280;5596;46.826;8.650;2022-09-16T01:27:17;95747.56;;;15.79;100.00
11085;BME280;5596;46.826;8.650;2022-09-16T01:30:09;95745.13;;;15.77;100.00
11085;BME280;5596;46.826;8.650;2022-09-16T01:32:52;95745.38;;;15.76;100.00
11085;BME280;5596;46.826;8.650;2022-09-16T01:35:25;95746.78;;;15.68;100.00
11085;BME280;5596;46.826;8.650;2022-09-16T01:38:01;95738.06;;;15.66;100.00
11085;BME280;5596;46.826;8.650;2022-09-16T01:40:34;95741.63;;;15.62;100.00
11085;BME280;5596;46.826;8.650;2022-09-16T01:43:13;95742.44;;;15.57;100.00
11085;BME280;5596;46.826;8.650;2022-09-16T01:45:50;95737.31;;;15.56;100.00
11085;BME280;5596;46.826;8.650;2022-09-16T01:48:24;95735.09;;;15.58;100.00
11085;BME280;5596;46.826;8.650;2022-09-16T01:50:59;95735.66;;;15.55;100.00
11085;BME280;5596;46.826;8.650;2022-09-16T01:53:32;95736.75;;;15.54;100.00
11085;BME280;5596;46.826;8.650;2022-09-16T01:56:05;95740.53;;;15.52;100.00
11085;BME280;5596;46.826;8.650;2022-09-16T01:58:38;95740.00;;;15.61;100.00
11085;BME280;5596;46.826;8.650;2022-09-16T02:01:11;95737.31;;;15.56;100.00
11085;BME280;5596;46.826;8.650;2022-09-16T02:03:46;95737.53;;;15.49;100.00
11085;BME280;5596;46.826;8.650;2022-09-16T02:06:18;95747.91;;;15.42;100.00
11085;BME280;5596;46.826;8.650;2022-09-16T02:08:49;95743.84;;;15.39;100.00
11085;BME280;5596;46.826;8.650;2022-09-16T02:11:19;95746.00;;;15.42;100.00
11085;BME280;5596;46.826;8.650;2022-09-16T02:13:50;95745.72;;;15.44;100.00
11085;BME280;5596;46.826;8.650;2022-09-16T02:16:22;95750.63;;;15.42;100.00
11085;BME280;5596;46.826;8.650;2022-09-16T02:18:55;95744.09;;;15.43;100.00
11085;BME280;5596;46.826;8.650;2022-09-16T02:21:26;95744.13;;;15.38;100.00
11085;BME280;5596;46.826;8.650;2022-09-16T02:23:58;95748.22;;;15.30;100.00
11085;BME280;5596;46.826;8.650;2022-09-16T02:26:29;95746.84;;;15.28;100.00
11085;BME280;5596;46.826;8.650;2022-09-16T02:29:00;95747.09;;;15.31;100.00
11085;BME280;5596;46.826;8.650;2022-09-16T02:31:32;95745.19;;;15.32;100.00
11085;BME280;5596;46.826;8.650;2022-09-16T02:34:06;95738.66;;;15.33;100.00
11085;BME280;5596;46.826;8.650;2022-09-16T02:36:37;95735.66;;;15.34;100.00
11085;BME280;5596;46.826;8.650;2022-09-16T02:39:08;95731.34;;;15.28;100.00
11085;BME280;5596;46.826;8.650;2022-09-16T02:41:37;95734.59;;;15.30;100.00
11085;BME280;5596;46.826;8.650;2022-09-16T02:44:06;95736.22;;;15.31;100.00
11085;BME280;5596;46.826;8.650;2022-09-16T02:46:39;95738.94;;;15.31;100.00
11085;BME280;5596;46.826;8.650;2022-09-16T02:49:11;95736.50;;;15.30;100.00
11085;BME280;5596;46.826;8.650;2022-09-16T02:51:46;95731.06;;;15.30;100.00
11085;BME280;5596;46.826;8.650;2022-09-16T02:54:21;95729.41;;;15.34;100.00
11085;BME280;5596;46.826;8.650;2022-09-16T02:56:50;95733.78;;;15.35;100.00
11085;BME280;5596;46.826;8.650;2022-09-16T02:59:17;95735.41;;;15.36;100.00
11085;BME280;5596;46.826;8.650;2022-09-16T03:01:45;95738.41;;;15.39;100.00
11085;BME280;5596;46.826;8.650;2022-09-16T03:04:16;95731.56;;;15.42;100.00
11085;BME280;5596;46.826;8.650;2022-09-16T03:06:44;95725.88;;;15.38;100.00
11085;BME280;5596;46.826;8.650;2022-09-16T03:09:13;95731.59;;;15.37;100.00
11085;BME280;5596;46.826;8.650;2022-09-16T03:12:16;95718.00;;;15.37;100.00
11085;BME280;5596;46.826;8.650;2022-09-16T03:17:58;95719.63;;;15.38;100.00
11085;BME280;5596;46.826;8.650;2022-09-16T03:20:39;95712.56;;;15.37;100.00
11085;BME280;5596;46.826;8.650;2022-09-16T03:23:14;95707.94;;;15.37;100.00
11085;BME280;5596;46.826;8.650;2022-09-16T03:25:50;95715.00;;;15.38;100.00
11085;BME280;5596;46.826;8.650;2022-09-16T03:28:25;95714.19;;;15.38;100.00
11085;BME280;5596;46.826;8.650;2022-09-16T03:30:58;95703.56;;;15.41;100.00
11085;BME280;5596;46.826;8.650;2022-09-16T03:33:31;95698.13;;;15.41;100.00
11085;BME280;5596;46.826;8.650;2022-09-16T03:36:04;95695.97;;;15.38;100.00
11085;BME280;5596;46.826;8.650;2022-09-16T03:38:35;95690.78;;;15.37;100.00
11085;BME280;5596;46.826;8.650;2022-09-16T03:41:05;95687.53;;;15.35;100.00
11085;BME280;5596;46.826;8.650;2022-09-16T03:43:34;95685.34;;;15.37;100.00
11085;BME280;5596;46.826;8.650;2022-09-16T03:46:00;95684.78;;;15.40;100.00
11085;BME280;5596;46.826;8.650;2022-09-16T03:48:27;95685.91;;;15.34;100.00
11085;BME280;5596;46.826;8.650;2022-09-16T03:50:55;95680.22;;;15.30;100.00
11085;BME280;5596;46.826;8.650;2022-09-16T03:53:23;95689.97;;;15.31;100.00
11085;BME280;5596;46.826;8.650;2022-09-16T03:55:50;95679.13;;;15.26;100.00
11085;BME280;5596;46.826;8.650;2022-09-16T03:58:17;95685.09;;;15.28;100.00
11085;BME280;5596;46.826;8.650;2022-09-16T04:00:47;95681.03;;;15.31;100.00
11085;BME280;5596;46.826;8.650;2022-09-16T04:03:16;95674.47;;;15.32;100.00
11085;BME280;5596;46.826;8.650;2022-09-16T04:05:43;95675.28;;;15.32;100.00
11085;BME280;5596;46.826;8.650;2022-09-16T04:08:11;95679.41;;;15.30;100.00
11085;BME280;5596;46.826;8.650;2022-09-16T04:10:39;95681.56;;;15.28;100.00
11085;BME280;5596;46.826;8.650;2022-09-16T04:13:06;95681.53;;;15.33;100.00
11085;BME280;5596;46.826;8.650;2022-09-16T04:15:35;95681.56;;;15.38;100.00
11085;BME280;5596;46.826;8.650;2022-09-16T04:18:03;95685.91;;;15.39;100.00
11085;BME280;5596;46.826;8.650;2022-09-16T04:20:30;95676.94;;;15.38;100.00
11085;BME280;5596;46.826;8.650;2022-09-16T04:22:58;95668.75;;;15.38;100.00
11085;BME280;5596;46.826;8.650;2022-09-16T04:25:25;95659.28;;;15.31;100.00
11085;BME280;5596;46.826;8.650;2022-09-16T04:27:54;95675.03;;;15.34;100.00
11085;BME280;5596;46.826;8.650;2022-09-16T04:30:21;95666.31;;;15.32;100.00
11085;BME280;5596;46.826;8.650;2022-09-16T04:32:52;95654.88;;;15.35;100.00
11085;BME280;5596;46.826;8.650;2022-09-16T04:35:19;95659.50;;;15.34;100.00
11085;BME280;5596;46.826;8.650;2022-09-16T04:37:46;95651.09;;;15.31;100.00
11085;BME280;5596;46.826;8.650;2022-09-16T04:40:13;95651.09;;;15.26;100.00
11085;BME280;5596;46.826;8.650;2022-09-16T04:42:40;95648.13;;;15.27;100.00
11085;BME280;5596;46.826;8.650;2022-09-16T04:45:09;95655.72;;;15.30;100.00
11085;BME280;5596;46.826;8.650;2022-09-16T04:47:36;95660.88;;;15.32;100.00
11085;BME280;5596;46.826;8.650;2022-09-16T04:50:04;95661.69;;;15.32;100.00
11085;BME280;5596;46.826;8.650;2022-09-16T04:52:31;95662.00;;;15.31;100.00
11085;BME280;5596;46.826;8.650;2022-09-16T04:54:59;95658.19;;;15.27;100.00
11085;BME280;5596;46.826;8.650;2022-09-16T04:57:29;95660.34;;;15.25;100.00
11085;BME280;5596;46.826;8.650;2022-09-16T04:59:57;95660.91;;;15.27;100.00
11085;BME280;5596;46.826;8.650;2022-09-16T05:02:25;95654.38;;;15.23;100.00
11085;BME280;5596;46.826;8.650;2022-09-16T05:04:54;95656.31;;;15.22;100.00
11085;BME280;5596;46.826;8.650;2022-09-16T05:07:21;95662.50;;;15.33;100.00
11085;BME280;5596;46.826;8.650;2022-09-16T05:09:48;95660.88;;;15.32;100.00
11085;BME280;5596;46.826;8.650;2022-09-16T05:12:15;95665.25;;;15.28;100.00
11085;BME280;5596;46.826;8.650;2022-09-16T05:14:42;95664.97;;;15.29;100.00
11085;BME280;5596;46.826;8.650;2022-09-16T05:17:09;95644.56;;;15.32;100.00
11085;BME280;5596;46.826;8.650;2022-09-16T05:19:37;95654.88;;;15.35;100.00
11085;BME280;5596;46.826;8.650;2022-09-16T05:22:04;95655.97;;;15.34;100.00
11085;BME280;5596;46.826;8.650;2022-09-16T05:24:33;95639.94;;;15.32;100.00
11085;BME280;5596;46.826;8.650;2022-09-16T05:27:01;95633.94;;;15.35;100.00
11085;BME280;5596;46.826;8.650;2022-09-16T05:29:29;95629.88;;;15.38;100.00
11085;BME280;5596;46.826;8.650;2022-09-16T05:31:56;95621.69;;;15.33;100.00
11085;BME280;5596;46.826;8.650;2022-09-16T05:34:23;95626.06;;;15.34;100.00
11085;BME280;5596;46.826;8.650;2022-09-16T05:36:55;95626.88;;;15.34;100.00
11085;BME280;5596;46.826;8.650;2022-09-16T05:39:23;95638.56;;;15.35;100.00
11085;BME280;5596;46.826;8.650;2022-09-16T05:41:53;95647.00;;;15.33;100.00
11085;BME280;5596;46.826;8.650;2022-09-16T05:44:21;95646.19;;;15.33;100.00
11085;BME280;5596;46.826;8.650;2022-09-16T05:46:48;95653.25;;;15.34;100.00
11085;BME280;5596;46.826;8.650;2022-09-16T05:49:15;95664.94;;;15.34;100.00
11085;BME280;5596;46.826;8.650;2022-09-16T05:51:46;95667.94;;;15.38;100.00
11085;BME280;5596;46.826;8.650;2022-09-16T05:54:14;95679.63;;;15.33;100.00
11085;BME280;5596;46.826;8.650;2022-09-16T05:56:43;95660.34;;;15.30;100.00
11085;BME280;5596;46.826;8.650;2022-09-16T05:59:11;95654.09;;;15.29;100.00
11085;BME280;5596;46.826;8.650;2022-09-16T06:01:39;95658.72;;;15.29;100.00
11085;BME280;5596;46.826;8.650;2022-09-16T06:04:09;95667.44;;;15.26;100.00
11085;BME280;5596;46.826;8.650;2022-09-16T06:06:38;95669.88;;;15.27;100.00
11085;BME280;5596;46.826;8.650;2022-09-16T06:09:08;95667.97;;;15.28;100.00
11085;BME280;5596;46.826;8.650;2022-09-16T06:11:39;95658.44;;;15.30;100.00
11085;BME280;5596;46.826;8.650;2022-09-16T06:14:06;95657.06;;;15.33;100.00
11085;BME280;5596;46.826;8.650;2022-09-16T06:16:34;95662.50;;;15.33;100.00
11085;BME280;5596;46.826;8.650;2022-09-16T06:19:04;95653.25;;;15.34;100.00
11085;BME280;5596;46.826;8.650;2022-09-16T06:21:31;95650.53;;;15.34;100.00
11085;BME280;5596;46.826;8.650;2022-09-16T06:23:58;95669.56;;;15.39;100.00
11085;BME280;5596;46.826;8.650;2022-09-16T06:26:26;95669.56;;;15.39;100.00
11085;BME280;5596;46.826;8.650;2022-09-16T06:28:54;95678.28;;;15.36;100.00
11085;BME280;5596;46.826;8.650;2022-09-16T06:31:23;95679.38;;;15.35;100.00
11085;BME280;5596;46.826;8.650;2022-09-16T06:33:51;95676.09;;;15.38;100.00
11085;BME280;5596;46.826;8.650;2022-09-16T06:36:21;95667.69;;;15.39;100.00
11085;BME280;5596;46.826;8.650;2022-09-16T06:38:48;95671.72;;;15.42;100.00
11085;BME280;5596;46.826;8.650;2022-09-16T06:41:18;95669.56;;;15.39;100.00
11085;BME280;5596;46.826;8.650;2022-09-16T06:43:46;95673.91;;;15.40;100.00
11085;BME280;5596;46.826;8.650;2022-09-16T06:46:16;95692.16;;;15.39;100.00
11085;BME280;5596;46.826;8.650;2022-09-16T06:48:45;95697.88;;;15.38;100.00
11085;BME280;5596;46.826;8.650;2022-09-16T06:51:13;95703.31;;;15.38;100.00
11085;BME280;5596;46.826;8.650;2022-09-16T06:53:41;95695.69;;;15.35;100.00
11085;BME280;5596;46.826;8.650;2022-09-16T06:56:10;95694.63;;;15.26;100.00
11085;BME280;5596;46.826;8.650;2022-09-16T06:58:38;95688.63;;;15.24;100.00
11085;BME280;5596;46.826;8.650;2022-09-16T07:01:07;95681.56;;;15.23;100.00
11085;BME280;5596;46.826;8.650;2022-09-16T07:03:39;95688.63;;;15.29;100.00
11085;BME280;5596;46.826;8.650;2022-09-16T07:06:07;95689.19;;;15.31;100.00
11085;BME280;5596;46.826;8.650;2022-09-16T07:08:35;95687.81;;;15.28;100.00
11085;BME280;5596;46.826;8.650;2022-09-16T07:11:05;95684.25;;;15.33;100.00
11085;BME280;5596;46.826;8.650;2022-09-16T07:13:32;95673.38;;;15.33;100.00
11085;BME280;5596;46.826;8.650;2022-09-16T07:16:00;95663.59;;;15.32;100.00
11085;BME280;5596;46.826;8.650;2022-09-16T07:18:27;95665.22;;;15.38;100.00
11085;BME280;5596;46.826;8.650;2022-09-16T07:21:04;95672.00;;;15.45;100.00
11085;BME280;5596;46.826;8.650;2022-09-16T07:23:33;95664.09;;;15.44;100.00
11085;BME280;5596;46.826;8.650;2022-09-16T07:26:03;95683.41;;;15.42;100.00
11085;BME280;5596;46.826;8.650;2022-09-16T07:28:31;95670.09;;;15.41;100.00
11085;BME280;5596;46.826;8.650;2022-09-16T07:31:00;95682.09;;;15.35;100.00
11085;BME280;5596;46.826;8.650;2022-09-16T07:33:28;95684.00;;;15.39;100.00
11085;BME280;5596;46.826;8.650;2022-09-16T07:35:59;95685.59;;;15.40;100.00
11085;BME280;5596;46.826;8.650;2022-09-16T07:38:28;95689.94;;;15.46;100.00
11085;BME280;5596;46.826;8.650;2022-09-16T07:43:29;95697.81;;;15.58;100.00
11085;BME280;5596;46.826;8.650;2022-09-16T07:45:56;95703.78;;;15.65;100.00
11085;BME280;5596;46.826;8.650;2022-09-16T07:48:23;95697.81;;;15.63;100.00
11085;BME280;5596;46.826;8.650;2022-09-16T07:50:55;95697.56;;;15.55;100.00
11085;BME280;5596;46.826;8.650;2022-09-16T07:53:22;95705.16;;;15.52;100.00
11085;BME280;5596;46.826;8.650;2022-09-16T07:55:51;95703.81;;;15.50;100.00
11085;BME280;5596;46.826;8.650;2022-09-16T07:58:18;95707.06;;;15.52;100.00
11085;BME280;5596;46.826;8.650;2022-09-16T08:00:46;95712.81;;;15.56;100.00
11085;BME280;5596;46.826;8.650;2022-09-16T08:03:14;95714.16;;;15.58;100.00
11085;BME280;5596;46.826;8.650;2022-09-16T08:05:42;95712.50;;;15.62;100.00
11085;BME280;5596;46.826;8.650;2022-09-16T08:08:09;95713.59;;;15.61;100.00
11085;BME280;5596;46.826;8.650;2022-09-16T08:10:36;95719.34;;;15.55;100.00
11085;BME280;5596;46.826;8.650;2022-09-16T08:13:06;95724.22;;;15.63;100.00
11085;BME280;5596;46.826;8.650;2022-09-16T08:15:33;95723.13;;;15.64;100.00
11085;BME280;5596;46.826;8.650;2022-09-16T08:18:00;95723.66;;;15.71;100.00
11085;BME280;5596;46.826;8.650;2022-09-16T08:20:28;95710.84;;;15.71;100.00
11085;BME280;5596;46.826;8.650;2022-09-16T08:22:55;95720.84;;;15.86;100.00
11085;BME280;5596;46.826;8.650;2022-09-16T08:25:22;95717.81;;;15.98;100.00
11085;BME280;5596;46.826;8.650;2022-09-16T08:27:49;95723.47;;;16.11;100.00
11085;BME280;5596;46.826;8.650;2022-09-16T08:30:18;95725.63;;;16.14;100.00
11085;BME280;5596;46.826;8.650;2022-09-16T08:32:45;95738.13;;;16.20;100.00
11085;BME280;5596;46.826;8.650;2022-09-16T08:35:12;95723.78;;;16.05;100.00
11085;BME280;5596;46.826;8.650;2022-09-16T08:37:39;95725.41;;;16.06;100.00
11085;BME280;5596;46.826;8.650;2022-09-16T08:40:06;95726.50;;;16.00;100.00
11085;BME280;5596;46.826;8.650;2022-09-16T08:42:53;95736.88;;;15.93;100.00
11085;BME280;5596;46.826;8.650;2022-09-16T08:45:29;95745.91;;;15.88;100.00
11085;BME280;5596;46.826;8.650;2022-09-16T08:48:15;95750.25;;;15.89;100.00
11085;BME280;5596;46.826;8.650;2022-09-16T08:50:48;95751.66;;;15.81;100.00
11085;BME280;5596;46.826;8.650;2022-09-16T08:53:20;95742.94;;;15.79;100.00
11085;BME280;5596;46.826;8.650;2022-09-16T08:55:48;95751.41;;;15.68;100.00
11085;BME280;5596;46.826;8.650;2022-09-16T08:58:18;95747.06;;;15.62;100.00
11085;BME280;5596;46.826;8.650;2022-09-16T09:00:50;95744.91;;;15.64;100.00
11085;BME280;5596;46.826;8.650;2022-09-16T09:03:29;95742.97;;;15.69;100.00
11085;BME280;5596;46.826;8.650;2022-09-16T09:05:59;95746.22;;;15.76;100.00
11085;BME280;5596;46.826;8.650;2022-09-16T09:08:37;95747.56;;;15.79;100.00
11085;BME280;5596;46.826;8.650;2022-09-16T09:11:12;95745.09;;;15.87;100.00
11085;BME280;5596;46.826;8.650;2022-09-16T09:16:51;95744.00;;;15.83;100.00
11085;BME280;5596;46.826;8.650;2022-09-16T09:19:31;95744.00;;;15.88;100.00
11085;BME280;5596;46.826;8.650;2022-09-16T09:22:07;95739.38;;;15.84;100.00
11085;BME280;5596;46.826;8.650;2022-09-16T09:24:54;95746.78;;;15.68;100.00
11085;BME280;5596;46.826;8.650;2022-09-16T09:27:26;95746.53;;;15.60;100.00
11085;BME280;5596;46.826;8.650;2022-09-16T09:30:04;95751.19;;;15.54;100.00
11085;BME280;5596;46.826;8.650;2022-09-16T09:32:45;95749.28;;;15.55;100.00
11085;BME280;5596;46.826;8.650;2022-09-16T09:35:30;95749.78;;;15.51;100.00
11085;BME280;5596;46.826;8.650;2022-09-16T09:41:10;95753.88;;;15.59;100.00
11085;BME280;5596;46.826;8.650;2022-09-16T09:43:42;95757.66;;;15.68;100.00
11085;BME280;5596;46.826;8.650;2022-09-16T09:46:15;95760.09;;;15.75;100.00
11085;BME280;5596;46.826;8.650;2022-09-16T09:48:48;95770.44;;;15.78;100.00
11085;BME280;5596;46.826;8.650;2022-09-16T09:51:23;95767.44;;;15.79;100.00
11085;BME280;5596;46.826;8.650;2022-09-16T09:53:57;95764.72;;;15.79;100.00
11085;BME280;5596;46.826;8.650;2022-09-16T09:56:30;95762.53;;;15.76;100.00
11085;BME280;5596;46.826;8.650;2022-09-16T09:59:03;95770.13;;;15.89;100.00
11085;BME280;5596;46.826;8.650;2022-09-16T10:01:37;95767.94;;;15.97;100.00
11085;BME280;5596;46.826;8.650;2022-09-16T10:04:11;95772.22;;;16.08;100.00
11085;BME280;5596;46.826;8.650;2022-09-16T10:06:41;95759.41;;;16.13;100.00
11085;BME280;5596;46.826;8.650;2022-09-16T10:09:12;95762.91;;;16.19;100.00
11085;BME280;5596;46.826;8.650;2022-09-16T10:11:47;95744.66;;;16.24;100.00
11085;BME280;5596;46.826;8.650;2022-09-16T10:14:28;95745.16;;;16.32;100.00
11085;BME280;5596;46.826;8.650;2022-09-16T10:16:59;95750.03;;;16.40;100.00
11085;BME280;5596;46.826;8.650;2022-09-16T10:19:39;95737.44;;;16.44;100.00
11085;BME280;5596;46.826;8.650;2022-09-16T10:22:21;95737.72;;;16.47;100.00
11085;BME280;5596;46.826;8.650;2022-09-16T10:24:53;95731.44;;;16.47;100.00
11085;BME280;5596;46.826;8.650;2022-09-16T10:27:23;95731.75;;;16.40;100.00
11085;BME280;5596;46.826;8.650;2022-09-16T10:30:12;95728.50;;;16.38;100.00
11085;BME280;5596;46.826;8.650;2022-09-16T10:32:48;95732.03;;;16.39;100.00
11085;BME280;5596;46.826;8.650;2022-09-16T10:35:20;95729.88;;;16.36;100.00
11085;BME280;5596;46.826;8.650;2022-09-16T10:37:51;95734.78;;;16.34;100.00
11085;BME280;5596;46.826;8.650;2022-09-16T10:40:19;95738.91;;;16.31;100.00
11085;BME280;5596;46.826;8.650;2022-09-16T10:42:48;95734.91;;;16.13;100.00
11085;BME280;5596;46.826;8.650;2022-09-16T10:45:23;95736.53;;;16.09;100.00
11085;BME280;5596;46.826;8.650;2022-09-16T10:47:54;95743.38;;;16.02;100.00
11085;BME280;5596;46.826;8.650;2022-09-16T10:50:23;95740.41;;;15.98;100.00
11085;BME280;5596;46.826;8.650;2022-09-16T10:52:52;95739.59;;;15.98;100.00
11085;BME280;5596;46.826;8.650;2022-09-16T10:55:23;95744.53;;;15.91;100.00
11085;BME280;5596;46.826;8.650;2022-09-16T10:57:50;95740.13;;;16.05;100.00
11085;BME280;5596;46.826;8.650;2022-09-16T11:00:20;95734.34;;;16.11;100.00
11085;BME280;5596;46.826;8.650;2022-09-16T11:05:51;95734.66;;;16.05;100.00
11085;BME280;5596;46.826;8.650;2022-09-16T11:08:34;95736.00;;;16.12;100.00
11085;BME280;5596;46.826;8.650;2022-09-16T11:11:10;95729.69;;;16.22;100.00
11085;BME280;5596;46.826;8.650;2022-09-16T11:13:45;95729.91;;;16.25;100.00
11085;BME280;5596;46.826;8.650;2022-09-16T11:19:15;95732.44;;;16.12;100.00
11085;BME280;5596;46.826;8.650;2022-09-16T11:22:00;95722.66;;;16.11;100.00
11085;BME280;5596;46.826;8.650;2022-09-16T11:27:24;95721.97;;;16.34;100.00
11085;BME280;5596;46.826;8.650;2022-09-16T11:30:03;95723.38;;;16.32;100.00
11085;BME280;5596;46.826;8.650;2022-09-16T11:32:54;95741.25;;;16.43;100.00
11085;BME280;5596;46.826;8.650;2022-09-16T11:36:11;95739.28;;;16.53;100.00
11085;BME280;5596;46.826;8.650;2022-09-16T11:38:52;95727.34;;;16.44;100.00
11085;BME280;5596;46.826;8.650;2022-09-16T11:41:28;95734.91;;;16.57;100.00
11085;BME280;5596;46.826;8.650;2022-09-16T11:47:09;95731.56;;;16.76;100.00
11085;BME280;5596;46.826;8.650;2022-09-16T11:49:51;95719.63;;;16.67;100.00
11085;BME280;5596;46.826;8.650;2022-09-16T11:52:36;95721.91;;;16.44;100.00
11085;BME280;5596;46.826;8.650;2022-09-16T11:55:21;95714.59;;;16.35;100.00
11085;BME280;5596;46.826;8.650;2022-09-16T11:57:55;95718.97;;;16.36;100.00
11085;BME280;5596;46.826;8.650;2022-09-16T12:00:24;95704.53;;;16.35;100.00
11085;BME280;5596;46.826;8.650;2022-09-16T12:02:56;95709.75;;;16.32;100.00
11085;BME280;5596;46.826;8.650;2022-09-16T12:05:28;95705.63;;;16.34;100.00
11085;BME280;5596;46.826;8.650;2022-09-16T12:08:02;95696.41;;;16.25;100.00
11085;BME280;5596;46.826;8.650;2022-09-16T12:10:38;95695.41;;;16.11;100.00
11085;BME280;5596;46.826;8.650;2022-09-16T12:13:11;95699.59;;;15.93;100.00
11085;BME280;5596;46.826;8.650;2022-09-16T12:15:46;95692.03;;;15.80;100.00
11085;BME280;5596;46.826;8.650;2022-09-16T12:18:17;95690.94;;;15.76;100.00
11085;BME280;5596;46.826;8.650;2022-09-16T12:20:50;95693.66;;;15.76;100.00
11085;BME280;5596;46.826;8.650;2022-09-16T12:23:21;95691.47;;;15.83;100.00
11085;BME280;5596;46.826;8.650;2022-09-16T12:26:01;95708.09;;;15.81;100.00
11085;BME280;5596;46.826;8.650;2022-09-16T12:28:34;95711.38;;;15.78;100.00
11085;BME280;5596;46.826;8.650;2022-09-16T12:31:10;95711.38;;;15.78;100.00
11085;BME280;5596;46.826;8.650;2022-09-16T12:33:43;95710.81;;;15.81;100.00
11085;BME280;5596;46.826;8.650;2022-09-16T12:36:17;95705.66;;;15.80;100.00
11085;BME280;5596;46.826;8.650;2022-09-16T12:38:46;95704.84;;;15.74;100.00
11085;BME280;5596;46.826;8.650;2022-09-16T12:41:28;95702.38;;;15.78;100.00
11085;BME280;5596;46.826;8.650;2022-09-16T12:44:20;95709.16;;;15.85;100.00
11085;BME280;5596;46.826;8.650;2022-09-16T12:47:10;95692.81;;;15.91;100.00
11085;BME280;5596;46.826;8.650;2022-09-16T12:53:01;95706.97;;;15.87;100.00
11085;BME280;5596;46.826;8.650;2022-09-16T12:55:41;95694.19;;;15.83;100.00
11085;BME280;5596;46.826;8.650;2022-09-16T12:58:37;95686.91;;;15.73;100.00
11085;BME280;5596;46.826;8.650;2022-09-16T13:01:16;95689.31;;;15.80;100.00
11085;BME280;5596;46.826;8.650;2022-09-16T13:03:47;95696.63;;;15.89;100.00
11085;BME280;5596;46.826;8.650;2022-09-16T13:06:21;95691.91;;;16.00;100.00
11085;BME280;5596;46.826;8.650;2022-09-16T13:08:50;95692.19;;;16.04;100.00
11085;BME280;5596;46.826;8.650;2022-09-16T13:11:20;95690.25;;;16.09;100.00
11085;BME280;5596;46.826;8.650;2022-09-16T13:13:52;95687.75;;;16.18;100.00
11085;BME280;5596;46.826;8.650;2022-09-16T13:16:29;95683.38;;;16.22;100.00
11085;BME280;5596;46.826;8.650;2022-09-16T13:19:23;95678.47;;;16.19;100.00
11085;BME280;5596;46.826;8.650;2022-09-16T13:21:55;95667.34;;;16.15;100.00
11085;BME280;5596;46.826;8.650;2022-09-16T13:24:28;95670.31;;;16.19;100.00
11085;BME280;5596;46.826;8.650;2022-09-16T13:26:57;95659.69;;;16.22;100.00
11085;BME280;5596;46.826;8.650;2022-09-16T13:29:39;95663.72;;;16.25;100.00
11085;BME280;5596;46.826;8.650;2022-09-16T13:32:24;95676.19;;;16.36;100.00
11085;BME280;5596;46.826;8.650;2022-09-16T13:35:03;95683.34;;;16.27;100.00
11085;BME280;5596;46.826;8.650;2022-09-16T13:37:31;95689.59;;;16.27;100.00
11085;BME280;5596;46.826;8.650;2022-09-16T13:40:08;95681.09;;;16.39;100.00
11085;BME280;5596;46.826;8.650;2022-09-16T13:42:41;95683.34;;;16.27;100.00
11085;BME280;5596;46.826;8.650;2022-09-16T13:45:31;95676.25;;;16.26;100.00
11085;BME280;5596;46.826;8.650;2022-09-16T13:48:01;95673.84;;;16.24;100.00
11085;BME280;5596;46.826;8.650;2022-09-16T13:50:33;95690.41;;;16.28;100.00
11085;BME280;5596;46.826;8.650;2022-09-16T13:53:08;95690.94;;;16.30;100.00